< < Back
Terminal Aerodrome Forecast


Current Version              Previous Versions:   1  2  3  4  5  6  7  8  9  

Terminal Aerodrome Forecast

860
FTUS42 KFFC 262328
TAFMCN
TAF
KMCN 262328Z 2700/2724 22012KT P6SM FEW060
     FM270100 21005KT P6SM SKC
     FM271500 23005KT P6SM SCT040
     FM271800 24008KT P6SM SCT060=

Latest METAR

654
SAUS80 KWBC 270300 RRB
MTRMCN
METAR KMCN 270253Z AUTO 23006KT 10SM CLR 28/22 A3004 RMK AO2 SLP168
T02830217 52019 TSNO


USA.gov is the U.S. government's official web portal to all federal, state and local government web resources and services.